sensor_id;sensor_type;location;lat;lon;timestamp;pressure;altitude;pressure_sealevel;temperature;humidity
9009;BME280;62813;51.424;6.762;2023-03-20T00:02:10;101701.25;;;10.59;77.45
9009;BME280;62813;51.424;6.762;2023-03-20T00:04:43;101700.31;;;10.61;77.17
9009;BME280;62813;51.424;6.762;2023-03-20T00:07:10;101707.09;;;10.67;77.69
9009;BME280;62813;51.424;6.762;2023-03-20T00:09:38;101708.03;;;10.65;77.56
9009;BME280;62813;51.424;6.762;2023-03-20T00:12:05;101706.50;;;10.56;78.03
9009;BME280;62813;51.424;6.762;2023-03-20T00:14:33;101702.91;;;10.61;77.83
9009;BME280;62813;51.424;6.762;2023-03-20T00:16:59;101703.91;;;10.56;77.82
9009;BME280;62813;51.424;6.762;2023-03-20T00:19:28;101706.34;;;10.62;77.58
9009;BME280;62813;51.424;6.762;2023-03-20T00:21:55;101709.09;;;10.57;78.11
9009;BME280;62813;51.424;6.762;2023-03-20T00:24:23;101702.91;;;10.61;77.79
9009;BME280;62813;51.424;6.762;2023-03-20T00:26:51;101702.84;;;10.63;77.66
9009;BME280;62813;51.424;6.762;2023-03-20T00:29:29;101707.19;;;10.64;77.56
9009;BME280;62813;51.424;6.762;2023-03-20T00:31:57;101707.19;;;10.64;77.54
9009;BME280;62813;51.424;6.762;2023-03-20T00:34:26;101717.59;;;10.63;77.74
9009;BME280;62813;51.424;6.762;2023-03-20T00:36:55;101724.47;;;10.65;77.73
9009;BME280;62813;51.424;6.762;2023-03-20T00:39:22;101713.44;;;10.55;77.52
9009;BME280;62813;51.424;6.762;2023-03-20T00:42:13;101709.44;;;10.42;77.33
9009;BME280;62813;51.424;6.762;2023-03-20T00:44:49;101716.66;;;10.31;78.23
9009;BME280;62813;51.424;6.762;2023-03-20T00:47:20;101708.72;;;10.37;77.72
9009;BME280;62813;51.424;6.762;2023-03-20T00:49:49;101706.13;;;10.37;78.30
9009;BME280;62813;51.424;6.762;2023-03-20T00:52:17;101716.53;;;10.37;78.17
9009;BME280;62813;51.424;6.762;2023-03-20T00:54:44;101717.41;;;10.36;77.99
9009;BME280;62813;51.424;6.762;2023-03-20T00:57:15;101703.44;;;10.40;77.91
9009;BME280;62813;51.424;6.762;2023-03-20T00:59:54;101697.38;;;10.41;78.09
9009;BME280;62813;51.424;6.762;2023-03-20T01:02:25;101694.16;;;10.31;77.81
9009;BME280;62813;51.424;6.762;2023-03-20T01:04:54;101702.13;;;10.24;77.99
9009;BME280;62813;51.424;6.762;2023-03-20T01:07:21;101688.25;;;10.25;77.73
9009;BME280;62813;51.424;6.762;2023-03-20T01:09:47;101701.16;;;10.28;77.57
9009;BME280;62813;51.424;6.762;2023-03-20T01:12:14;101698.66;;;10.25;77.50
9009;BME280;62813;51.424;6.762;2023-03-20T01:14:42;101707.22;;;10.27;77.46
9009;BME280;62813;51.424;6.762;2023-03-20T01:17:20;101703.84;;;10.25;77.73
9009;BME280;62813;51.424;6.762;2023-03-20T01:19:47;101698.56;;;10.28;77.39
9009;BME280;62813;51.424;6.762;2023-03-20T01:22:13;101691.59;;;10.30;77.58
9009;BME280;62813;51.424;6.762;2023-03-20T01:24:41;101694.16;;;10.31;77.12
9009;BME280;62813;51.424;6.762;2023-03-20T01:27:13;101690.75;;;10.29;77.00
9009;BME280;62813;51.424;6.762;2023-03-20T01:29:41;101697.66;;;10.30;77.01
9009;BME280;62813;51.424;6.762;2023-03-20T01:32:11;101696.81;;;10.30;76.87
9009;BME280;62813;51.424;6.762;2023-03-20T01:34:38;101688.91;;;10.33;76.63
9009;BME280;62813;51.424;6.762;2023-03-20T01:37:10;101684.53;;;10.35;76.71
9009;BME280;62813;51.424;6.762;2023-03-20T01:39:38;101691.47;;;10.36;76.92
9009;BME280;62813;51.424;6.762;2023-03-20T01:42:07;101692.25;;;10.38;76.26
9009;BME280;62813;51.424;6.762;2023-03-20T01:44:35;101680.25;;;10.34;76.44
9009;BME280;62813;51.424;6.762;2023-03-20T01:47:13;101674.25;;;10.32;76.74
9009;BME280;62813;51.424;6.762;2023-03-20T01:52:45;101683.88;;;10.27;76.40
9009;BME280;62813;51.424;6.762;2023-03-20T01:55:13;101691.66;;;10.27;76.57
9009;BME280;62813;51.424;6.762;2023-03-20T01:57:40;101690.75;;;10.29;76.58
9009;BME280;62813;51.424;6.762;2023-03-20T02:00:13;101687.31;;;10.27;76.38
9009;BME280;62813;51.424;6.762;2023-03-20T02:02:43;101689.97;;;10.26;76.10
9009;BME280;62813;51.424;6.762;2023-03-20T02:05:11;101703.78;;;10.26;76.57
9009;BME280;62813;51.424;6.762;2023-03-20T02:07:39;101703.84;;;10.25;76.66
9009;BME280;62813;51.424;6.762;2023-03-20T02:10:10;101710.88;;;10.20;76.37
9009;BME280;62813;51.424;6.762;2023-03-20T02:12:38;101710.81;;;10.23;76.38
9009;BME280;62813;51.424;6.762;2023-03-20T02:15:05;101702.47;;;10.10;76.52
9009;BME280;62813;51.424;6.762;2023-03-20T02:17:33;101698.03;;;10.14;76.28
9009;BME280;62813;51.424;6.762;2023-03-20T02:26:42;101692.59;;;10.24;75.56
9009;BME280;62813;51.424;6.762;2023-03-20T02:31:53;101693.53;;;10.22;75.68
9009;BME280;62813;51.424;6.762;2023-03-20T02:46:28;101712.66;;;10.18;75.42
9009;BME280;62813;51.424;6.762;2023-03-20T02:55:21;101701.53;;;10.13;76.29
9009;BME280;62813;51.424;6.762;2023-03-20T02:58:36;101698.09;;;10.12;76.46
9009;BME280;62813;51.424;6.762;2023-03-20T03:00:56;101704.13;;;10.13;76.38
9009;BME280;62813;51.424;6.762;2023-03-20T03:06:31;101716.16;;;10.17;75.91
9009;BME280;62813;51.424;6.762;2023-03-20T03:09:10;101705.81;;;10.14;76.03
9009;BME280;62813;51.424;6.762;2023-03-20T03:11:51;101690.34;;;10.11;76.81
9009;BME280;62813;51.424;6.762;2023-03-20T03:14:34;101672.09;;;10.15;76.87
9009;BME280;62813;51.424;6.762;2023-03-20T03:17:05;101663.50;;;10.12;76.82
9009;BME280;62813;51.424;6.762;2023-03-20T03:19:39;101673.84;;;10.13;76.50
9009;BME280;62813;51.424;6.762;2023-03-20T03:22:15;101669.50;;;10.14;77.15
9009;BME280;62813;51.424;6.762;2023-03-20T03:24:51;101658.41;;;10.09;77.03
9009;BME280;62813;51.424;6.762;2023-03-20T03:27:41;101661.00;;;10.09;76.94
9009;BME280;62813;51.424;6.762;2023-03-20T03:35:17;101673.06;;;10.10;77.19
9009;BME280;62813;51.424;6.762;2023-03-20T03:40:27;101680.97;;;10.05;77.46
9009;BME280;62813;51.424;6.762;2023-03-20T03:43:17;101677.63;;;10.00;77.75
9009;BME280;62813;51.424;6.762;2023-03-20T03:45:53;101684.53;;;10.01;77.70
9009;BME280;62813;51.424;6.762;2023-03-20T03:48:26;101691.53;;;9.97;77.91
9009;BME280;62813;51.424;6.762;2023-03-20T03:51:00;101684.72;;;9.92;78.50
9009;BME280;62813;51.424;6.762;2023-03-20T03:53:34;101696.00;;;9.91;78.23
9009;BME280;62813;51.424;6.762;2023-03-20T03:56:09;101689.09;;;9.90;78.38
9009;BME280;62813;51.424;6.762;2023-03-20T03:58:39;101701.13;;;9.92;78.53
9009;BME280;62813;51.424;6.762;2023-03-20T04:01:09;101710.84;;;9.84;79.07
9009;BME280;62813;51.424;6.762;2023-03-20T04:03:43;101703.91;;;9.86;79.21
9009;BME280;62813;51.424;6.762;2023-03-20T04:06:12;101697.81;;;9.86;79.23
9009;BME280;62813;51.424;6.762;2023-03-20T04:08:42;101703.00;;;9.86;78.94
9009;BME280;62813;51.424;6.762;2023-03-20T04:11:20;101684.00;;;9.85;78.83
9009;BME280;62813;51.424;6.762;2023-03-20T04:13:49;101677.06;;;9.87;79.12
9009;BME280;62813;51.424;6.762;2023-03-20T04:16:20;101680.56;;;9.86;79.32
9009;BME280;62813;51.424;6.762;2023-03-20T04:18:47;101677.97;;;9.86;78.92
9009;BME280;62813;51.424;6.762;2023-03-20T04:21:16;101665.00;;;9.86;79.27
9009;BME280;62813;51.424;6.762;2023-03-20T04:23:43;101658.09;;;9.85;78.98
9009;BME280;62813;51.424;6.762;2023-03-20T04:26:10;101661.56;;;9.84;78.92
9009;BME280;62813;51.424;6.762;2023-03-20T04:28:37;101657.47;;;9.75;79.18
9009;BME280;62813;51.424;6.762;2023-03-20T04:31:04;101660.84;;;9.77;79.25
9009;BME280;62813;51.424;6.762;2023-03-20T04:33:30;101665.28;;;9.74;79.09
9009;BME280;62813;51.424;6.762;2023-03-20T04:35:58;101662.72;;;9.71;79.60
9009;BME280;62813;51.424;6.762;2023-03-20T04:38:25;101653.22;;;9.73;79.02
9009;BME280;62813;51.424;6.762;2023-03-20T04:40:52;101650.81;;;9.64;78.97
9009;BME280;62813;51.424;6.762;2023-03-20T04:43:19;101660.34;;;9.62;78.97
9009;BME280;62813;51.424;6.762;2023-03-20T04:45:46;101662.91;;;9.63;79.22
9009;BME280;62813;51.424;6.762;2023-03-20T04:48:12;101667.28;;;9.61;79.15
9009;BME280;62813;51.424;6.762;2023-03-20T04:50:39;101652.63;;;9.60;79.03
9009;BME280;62813;51.424;6.762;2023-03-20T04:53:06;101651.69;;;9.63;78.75
9009;BME280;62813;51.424;6.762;2023-03-20T04:55:33;101656.03;;;9.62;78.72
9009;BME280;62813;51.424;6.762;2023-03-20T04:58:03;101656.03;;;9.62;78.95
9009;BME280;62813;51.424;6.762;2023-03-20T05:00:30;101657.00;;;9.58;78.66
9009;BME280;62813;51.424;6.762;2023-03-20T05:02:57;101648.34;;;9.58;78.89
9009;BME280;62813;51.424;6.762;2023-03-20T05:05:24;101665.69;;;9.56;79.29
9009;BME280;62813;51.424;6.762;2023-03-20T05:07:51;101655.41;;;9.53;79.00
9009;BME280;62813;51.424;6.762;2023-03-20T05:10:18;101657.13;;;9.50;78.85
9009;BME280;62813;51.424;6.762;2023-03-20T05:12:46;101665.81;;;9.49;79.25
9009;BME280;62813;51.424;6.762;2023-03-20T05:15:13;101654.66;;;9.46;79.46
9009;BME280;62813;51.424;6.762;2023-03-20T05:17:40;101661.63;;;9.42;79.60
9009;BME280;62813;51.424;6.762;2023-03-20T05:20:07;101661.59;;;9.45;79.64
9009;BME280;62813;51.424;6.762;2023-03-20T05:22:34;101653.81;;;9.45;79.51
9009;BME280;62813;51.424;6.762;2023-03-20T05:25:01;101666.00;;;9.40;78.67
9009;BME280;62813;51.424;6.762;2023-03-20T05:27:28;101657.31;;;9.44;78.95
9009;BME280;62813;51.424;6.762;2023-03-20T05:29:55;101671.25;;;9.39;78.17
9009;BME280;62813;51.424;6.762;2023-03-20T05:32:22;101670.44;;;9.35;79.03
9009;BME280;62813;51.424;6.762;2023-03-20T05:34:49;101672.91;;;9.41;79.25
9009;BME280;62813;51.424;6.762;2023-03-20T05:37:16;101668.59;;;9.40;79.63
9009;BME280;62813;51.424;6.762;2023-03-20T05:39:43;101672.84;;;9.43;78.93
9009;BME280;62813;51.424;6.762;2023-03-20T05:42:09;101669.38;;;9.45;78.83
9009;BME280;62813;51.424;6.762;2023-03-20T05:44:36;101671.19;;;9.40;78.44
9009;BME280;62813;51.424;6.762;2023-03-20T05:47:03;101675.44;;;9.44;78.23
9009;BME280;62813;51.424;6.762;2023-03-20T05:49:31;101672.97;;;9.37;78.22
9009;BME280;62813;51.424;6.762;2023-03-20T05:51:57;101674.88;;;9.30;77.87
9009;BME280;62813;51.424;6.762;2023-03-20T05:54:24;101673.03;;;9.35;78.35
9009;BME280;62813;51.424;6.762;2023-03-20T05:56:51;101674.72;;;9.36;77.57
9009;BME280;62813;51.424;6.762;2023-03-20T05:59:18;101668.69;;;9.37;77.73
9009;BME280;62813;51.424;6.762;2023-03-20T06:01:44;101664.31;;;9.39;77.50
9009;BME280;62813;51.424;6.762;2023-03-20T06:04:12;101663.38;;;9.42;77.40
9009;BME280;62813;51.424;6.762;2023-03-20T06:06:39;101659.81;;;9.47;77.88
9009;BME280;62813;51.424;6.762;2023-03-20T06:09:10;101664.22;;;9.42;77.11
9009;BME280;62813;51.424;6.762;2023-03-20T06:11:37;101659.19;;;9.36;76.97
9009;BME280;62813;51.424;6.762;2023-03-20T06:14:03;101666.47;;;9.19;76.64
9009;BME280;62813;51.424;6.762;2023-03-20T06:16:33;101663.06;;;9.17;76.81
9009;BME280;62813;51.424;6.762;2023-03-20T06:19:00;101667.34;;;9.18;76.29
9009;BME280;62813;51.424;6.762;2023-03-20T06:21:27;101663.94;;;9.16;76.59
9009;BME280;62813;51.424;6.762;2023-03-20T06:23:54;101667.47;;;9.12;76.52
9009;BME280;62813;51.424;6.762;2023-03-20T06:26:23;101673.34;;;9.20;76.03
9009;BME280;62813;51.424;6.762;2023-03-20T06:28:50;101674.34;;;9.13;75.66
9009;BME280;62813;51.424;6.762;2023-03-20T06:31:17;101671.97;;;9.01;76.13
9009;BME280;62813;51.424;6.762;2023-03-20T06:33:49;101684.19;;;8.95;76.16
9009;BME280;62813;51.424;6.762;2023-03-20T06:36:16;101687.69;;;8.91;76.27
9009;BME280;62813;51.424;6.762;2023-03-20T06:38:43;101699.59;;;9.02;76.26
9009;BME280;62813;51.424;6.762;2023-03-20T06:41:11;101709.88;;;9.05;76.29
9009;BME280;62813;51.424;6.762;2023-03-20T06:44:00;101712.41;;;9.11;75.90
9009;BME280;62813;51.424;6.762;2023-03-20T06:46:29;101715.75;;;9.16;75.99
9009;BME280;62813;51.424;6.762;2023-03-20T06:48:55;101720.91;;;9.17;75.81
9009;BME280;62813;51.424;6.762;2023-03-20T06:51:22;101718.34;;;9.16;76.05
9009;BME280;62813;51.424;6.762;2023-03-20T06:53:49;101713.88;;;9.22;76.03
9009;BME280;62813;51.424;6.762;2023-03-20T06:56:16;101727.63;;;9.26;75.69
9009;BME280;62813;51.424;6.762;2023-03-20T06:58:45;101733.63;;;9.28;75.73
9009;BME280;62813;51.424;6.762;2023-03-20T07:01:14;101730.91;;;9.34;75.62
9009;BME280;62813;51.424;6.762;2023-03-20T07:03:45;101735.16;;;9.38;75.91
9009;BME280;62813;51.424;6.762;2023-03-20T07:06:12;101728.31;;;9.34;76.07
9009;BME280;62813;51.424;6.762;2023-03-20T07:08:39;101729.81;;;9.46;75.83
9009;BME280;62813;51.424;6.762;2023-03-20T07:11:08;101721.13;;;9.48;75.71
9009;BME280;62813;51.424;6.762;2023-03-20T07:13:36;101723.72;;;9.48;74.91
9009;BME280;62813;51.424;6.762;2023-03-20T07:16:06;101727.19;;;9.47;74.89
9009;BME280;62813;51.424;6.762;2023-03-20T07:18:33;101718.56;;;9.47;74.93
9009;BME280;62813;51.424;6.762;2023-03-20T07:21:02;101726.41;;;9.44;74.71
9009;BME280;62813;51.424;6.762;2023-03-20T07:23:29;101723.03;;;9.40;74.53
9009;BME280;62813;51.424;6.762;2023-03-20T07:25:57;101726.50;;;9.39;74.53
9009;BME280;62813;51.424;6.762;2023-03-20T07:28:24;101729.81;;;9.46;74.46
9009;BME280;62813;51.424;6.762;2023-03-20T07:30:51;101725.50;;;9.46;74.17
9009;BME280;62813;51.424;6.762;2023-03-20T07:33:18;101719.41;;;9.47;74.91
9009;BME280;62813;51.424;6.762;2023-03-20T07:35:44;101729.00;;;9.42;74.94
9009;BME280;62813;51.424;6.762;2023-03-20T07:38:13;101733.06;;;9.56;74.60
9009;BME280;62813;51.424;6.762;2023-03-20T07:40:40;101731.38;;;9.55;74.49
9009;BME280;62813;51.424;6.762;2023-03-20T07:43:07;101736.59;;;9.53;74.04
9009;BME280;62813;51.424;6.762;2023-03-20T07:45:34;101731.25;;;9.61;74.20
9009;BME280;62813;51.424;6.762;2023-03-20T07:48:01;101736.41;;;9.61;73.96
9009;BME280;62813;51.424;6.762;2023-03-20T07:50:28;101734.59;;;9.66;73.77
9009;BME280;62813;51.424;6.762;2023-03-20T07:52:55;101732.72;;;9.72;73.63
9009;BME280;62813;51.424;6.762;2023-03-20T07:55:22;101736.28;;;9.67;73.54
9009;BME280;62813;51.424;6.762;2023-03-20T07:57:49;101737.69;;;9.82;73.54
9009;BME280;62813;51.424;6.762;2023-03-20T08:00:17;101735.31;;;9.71;73.54
9009;BME280;62813;51.424;6.762;2023-03-20T08:02:44;101746.31;;;9.82;73.46
9009;BME280;62813;51.424;6.762;2023-03-20T08:05:11;101750.66;;;9.82;72.89
9009;BME280;62813;51.424;6.762;2023-03-20T08:07:38;101748.78;;;9.88;73.23
9009;BME280;62813;51.424;6.762;2023-03-20T08:10:09;101751.16;;;9.97;72.44
9009;BME280;62813;51.424;6.762;2023-03-20T08:12:36;101744.41;;;9.90;71.96
9009;BME280;62813;51.424;6.762;2023-03-20T08:15:03;101747.69;;;9.98;70.65
9009;BME280;62813;51.424;6.762;2023-03-20T08:17:33;101753.66;;;10.02;70.50
9009;BME280;62813;51.424;6.762;2023-03-20T08:19:59;101748.41;;;10.05;70.55
9009;BME280;62813;51.424;6.762;2023-03-20T08:22:29;101757.84;;;10.09;69.70
9009;BME280;62813;51.424;6.762;2023-03-20T08:24:56;101764.75;;;10.09;68.73
9009;BME280;62813;51.424;6.762;2023-03-20T08:27:22;101755.25;;;10.09;68.64
9009;BME280;62813;51.424;6.762;2023-03-20T08:29:50;101763.06;;;10.08;68.56
9009;BME280;62813;51.424;6.762;2023-03-20T08:32:17;101761.38;;;10.05;67.63
9009;BME280;62813;51.424;6.762;2023-03-20T08:34:44;101763.97;;;10.05;68.00
9009;BME280;62813;51.424;6.762;2023-03-20T08:37:13;101754.53;;;10.02;67.63
9009;BME280;62813;51.424;6.762;2023-03-20T08:39:42;101760.59;;;10.01;67.54
9009;BME280;62813;51.424;6.762;2023-03-20T08:42:09;101753.75;;;9.97;67.98
9009;BME280;62813;51.424;6.762;2023-03-20T08:44:36;101756.50;;;9.91;67.37
9009;BME280;62813;51.424;6.762;2023-03-20T08:47:03;101762.44;;;9.96;67.53
9009;BME280;62813;51.424;6.762;2023-03-20T08:49:30;101762.53;;;9.93;66.58
9009;BME280;62813;51.424;6.762;2023-03-20T08:51:58;101759.97;;;9.90;66.50
9009;BME280;62813;51.424;6.762;2023-03-20T08:54:25;101753.09;;;9.89;66.72
9009;BME280;62813;51.424;6.762;2023-03-20T08:56:52;101758.34;;;9.86;66.25
9009;BME280;62813;51.424;6.762;2023-03-20T08:59:19;101754.88;;;9.87;66.10
9009;BME280;62813;51.424;6.762;2023-03-20T09:01:46;101748.78;;;9.88;65.37
9009;BME280;62813;51.424;6.762;2023-03-20T09:04:16;101743.34;;;10.00;65.23
9009;BME280;62813;51.424;6.762;2023-03-20T09:06:43;101745.84;;;10.03;64.53
9009;BME280;62813;51.424;6.762;2023-03-20T09:09:09;101745.84;;;10.03;63.43
9009;BME280;62813;51.424;6.762;2023-03-20T09:11:36;101750.09;;;10.06;62.37
9009;BME280;62813;51.424;6.762;2023-03-20T09:14:03;101749.22;;;10.07;61.85
9009;BME280;62813;51.424;6.762;2023-03-20T09:16:29;101750.91;;;10.10;61.19
9009;BME280;62813;51.424;6.762;2023-03-20T09:18:56;101742.22;;;10.11;61.26
9009;BME280;62813;51.424;6.762;2023-03-20T09:21:23;101750.09;;;10.08;61.38
9009;BME280;62813;51.424;6.762;2023-03-20T09:23:49;101743.97;;;10.10;61.73
9009;BME280;62813;51.424;6.762;2023-03-20T09:26:16;101750.81;;;10.13;60.98
9009;BME280;62813;51.424;6.762;2023-03-20T09:28:43;101747.31;;;10.14;61.25
9009;BME280;62813;51.424;6.762;2023-03-20T09:31:09;101743.13;;;10.10;61.07
9009;BME280;62813;51.424;6.762;2023-03-20T09:33:37;101747.72;;;9.97;59.69
9009;BME280;62813;51.424;6.762;2023-03-20T09:36:04;101749.38;;;9.99;60.00
9009;BME280;62813;51.424;6.762;2023-03-20T09:38:30;101760.38;;;10.11;60.11
9009;BME280;62813;51.424;6.762;2023-03-20T09:41:02;101760.13;;;10.21;60.45
9009;BME280;62813;51.424;6.762;2023-03-20T09:46:11;101747.13;;;10.23;58.95
9009;BME280;62813;51.424;6.762;2023-03-20T09:49:11;101753.09;;;10.26;59.12
9009;BME280;62813;51.424;6.762;2023-03-20T09:51:52;101753.09;;;10.26;58.31
9009;BME280;62813;51.424;6.762;2023-03-20T09:54:28;101749.81;;;10.18;58.12
9009;BME280;62813;51.424;6.762;2023-03-20T09:57:26;101755.81;;;10.22;58.92
9009;BME280;62813;51.424;6.762;2023-03-20T10:00:03;101753.94;;;10.27;58.63
9009;BME280;62813;51.424;6.762;2023-03-20T10:02:38;101752.28;;;10.24;59.04
9009;BME280;62813;51.424;6.762;2023-03-20T10:05:20;101741.81;;;10.29;59.10
9009;BME280;62813;51.424;6.762;2023-03-20T10:07:48;101752.25;;;10.26;59.09
9009;BME280;62813;51.424;6.762;2023-03-20T10:10:16;101746.91;;;10.32;58.81
9009;BME280;62813;51.424;6.762;2023-03-20T10:12:50;101745.06;;;10.37;58.96
9009;BME280;62813;51.424;6.762;2023-03-20T10:15:27;101739.91;;;10.36;58.97
9009;BME280;62813;51.424;6.762;2023-03-20T10:18:22;101739.88;;;10.37;58.77
9009;BME280;62813;51.424;6.762;2023-03-20T10:21:04;101746.91;;;10.32;59.12
9009;BME280;62813;51.424;6.762;2023-03-20T10:23:35;101750.13;;;10.43;59.79
9009;BME280;62813;51.424;6.762;2023-03-20T10:26:13;101745.88;;;10.39;60.50
9009;BME280;62813;51.424;6.762;2023-03-20T10:28:51;101749.34;;;10.38;60.59
9009;BME280;62813;51.424;6.762;2023-03-20T10:31:29;101739.56;;;10.49;60.43
9009;BME280;62813;51.424;6.762;2023-03-20T10:39:56;101745.22;;;10.65;58.61
9009;BME280;62813;51.424;6.762;2023-03-20T10:42:29;101735.91;;;10.58;59.18
9009;BME280;62813;51.424;6.762;2023-03-20T10:45:24;101732.66;;;10.48;59.14
9009;BME280;62813;51.424;6.762;2023-03-20T10:47:56;101737.03;;;10.46;58.95
9009;BME280;62813;51.424;6.762;2023-03-20T10:50:31;101738.69;;;10.50;58.87
9009;BME280;62813;51.424;6.762;2023-03-20T10:53:02;101723.75;;;10.58;59.69
9009;BME280;62813;51.424;6.762;2023-03-20T10:55:41;101737.59;;;10.59;59.77
9009;BME280;62813;51.424;6.762;2023-03-20T10:58:23;101731.66;;;10.54;59.29
9009;BME280;62813;51.424;6.762;2023-03-20T11:00:54;101733.75;;;10.74;59.13
9009;BME280;62813;51.424;6.762;2023-03-20T11:03:24;101733.06;;;10.67;60.42
9009;BME280;62813;51.424;6.762;2023-03-20T11:06:03;101727.16;;;10.60;60.04
9009;BME280;62813;51.424;6.762;2023-03-20T11:08:42;101726.28;;;10.61;60.14
9009;BME280;62813;51.424;6.762;2023-03-20T11:11:12;101718.63;;;10.55;59.95
9009;BME280;62813;51.424;6.762;2023-03-20T11:13:42;101720.16;;;10.64;60.64
9009;BME280;62813;51.424;6.762;2023-03-20T11:18:49;101723.81;;;10.55;60.11
9009;BME280;62813;51.424;6.762;2023-03-20T11:21:19;101721.16;;;10.58;59.82
9009;BME280;62813;51.424;6.762;2023-03-20T11:23:46;101719.13;;;10.71;59.77
9009;BME280;62813;51.424;6.762;2023-03-20T11:26:19;101705.28;;;10.69;59.79
9009;BME280;62813;51.424;6.762;2023-03-20T11:28:55;101717.22;;;10.76;59.27
9009;BME280;62813;51.424;6.762;2023-03-20T11:31:36;101706.00;;;10.76;58.83
9009;BME280;62813;51.424;6.762;2023-03-20T11:36:32;101714.53;;;10.81;59.56
9009;BME280;62813;51.424;6.762;2023-03-20T11:39:11;101711.13;;;10.79;60.30
9009;BME280;62813;51.424;6.762;2023-03-20T11:41:52;101712.19;;;10.72;60.19
9009;BME280;62813;51.424;6.762;2023-03-20T11:44:22;101707.28;;;10.59;59.36
9009;BME280;62813;51.424;6.762;2023-03-20T11:47:03;101707.56;;;10.49;60.09
9009;BME280;62813;51.424;6.762;2023-03-20T11:49:32;101710.19;;;10.47;60.75
9009;BME280;62813;51.424;6.762;2023-03-20T11:52:13;101713.09;;;10.35;60.95
9009;BME280;62813;51.424;6.762;2023-03-20T11:54:47;101713.13;;;10.33;61.69
9009;BME280;62813;51.424;6.762;2023-03-20T11:57:31;101712.78;;;10.47;61.72
9009;BME280;62813;51.424;6.762;2023-03-20T12:02:32;101713.56;;;10.51;61.49
9009;BME280;62813;51.424;6.762;2023-03-20T12:05:01;101720.47;;;10.52;61.27
9009;BME280;62813;51.424;6.762;2023-03-20T12:07:43;101722.28;;;10.48;62.07
9009;BME280;62813;51.424;6.762;2023-03-20T12:10:13;101715.38;;;10.47;63.28
9009;BME280;62813;51.424;6.762;2023-03-20T12:12:54;101720.34;;;10.56;63.63
9009;BME280;62813;51.424;6.762;2023-03-20T12:15:37;101713.59;;;10.49;63.26
9009;BME280;62813;51.424;6.762;2023-03-20T12:18:27;101715.66;;;10.37;63.41
9009;BME280;62813;51.424;6.762;2023-03-20T12:23:40;101708.34;;;10.52;65.07
9009;BME280;62813;51.424;6.762;2023-03-20T12:26:11;101698.66;;;10.59;65.08
9009;BME280;62813;51.424;6.762;2023-03-20T12:31:43;101703.25;;;10.82;66.09
9009;BME280;62813;51.424;6.762;2023-03-20T12:34:17;101709.75;;;10.66;65.59
9009;BME280;62813;51.424;6.762;2023-03-20T12:36:48;101703.69;;;10.65;67.15
9009;BME280;62813;51.424;6.762;2023-03-20T12:39:20;101695.97;;;10.62;65.90
9009;BME280;62813;51.424;6.762;2023-03-20T12:42:27;101696.22;;;10.53;65.61
9009;BME280;62813;51.424;6.762;2023-03-20T12:45:18;101692.53;;;10.61;66.25
9009;BME280;62813;51.424;6.762;2023-03-20T12:50:46;101690.50;;;10.73;66.18
9009;BME280;62813;51.424;6.762;2023-03-20T12:53:48;101685.22;;;10.76;66.06
9009;BME280;62813;51.424;6.762;2023-03-20T12:59:14;101671.41;;;10.43;66.40
9009;BME280;62813;51.424;6.762;2023-03-20T13:01:51;101669.25;;;10.24;67.15
9009;BME280;62813;51.424;6.762;2023-03-20T13:07:18;101661.50;;;10.23;67.52
9009;BME280;62813;51.424;6.762;2023-03-20T13:10:23;101660.69;;;10.21;67.11
9009;BME280;62813;51.424;6.762;2023-03-20T13:13:04;101657.97;;;10.25;67.24
9009;BME280;62813;51.424;6.762;2023-03-20T13:15:59;101658.63;;;10.33;66.16
9009;BME280;62813;51.424;6.762;2023-03-20T13:20:54;101659.44;;;10.37;66.14
9009;BME280;62813;51.424;6.762;2023-03-20T13:23:39;101654.34;;;10.32;65.75
9009;BME280;62813;51.424;6.762;2023-03-20T13:29:14;101648.94;;;10.40;65.29
9009;BME280;62813;51.424;6.762;2023-03-20T13:31:50;101642.66;;;10.50;65.58
9009;BME280;62813;51.424;6.762;2023-03-20T13:34:58;101642.72;;;10.47;64.96
9009;BME280;62813;51.424;6.762;2023-03-20T13:37:36;101651.06;;;10.58;64.76
9009;BME280;62813;51.424;6.762;2023-03-20T13:40:10;101639.91;;;10.55;65.86
9009;BME280;62813;51.424;6.762;2023-03-20T13:45:24;101649.13;;;10.67;65.61
9009;BME280;62813;51.424;6.762;2023-03-20T13:47:55;101647.38;;;10.67;65.40
9009;BME280;62813;51.424;6.762;2023-03-20T13:50:41;101637.03;;;10.66;65.21
9009;BME280;62813;51.424;6.762;2023-03-20T13:53:27;101647.31;;;10.69;65.07
9009;BME280;62813;51.424;6.762;2023-03-20T14:02:14;101636.25;;;10.62;65.61
9009;BME280;62813;51.424;6.762;2023-03-20T14:04:43;101630.69;;;10.76;64.54
9009;BME280;62813;51.424;6.762;2023-03-20T14:07:53;101623.31;;;10.60;65.40
9009;BME280;62813;51.424;6.762;2023-03-20T14:12:49;101619.28;;;10.49;66.15
9009;BME280;62813;51.424;6.762;2023-03-20T14:15:17;101622.09;;;10.43;65.55
9009;BME280;62813;51.424;6.762;2023-03-20T14:17:46;101614.31;;;10.43;66.17
9009;BME280;62813;51.424;6.762;2023-03-20T14:20:38;101609.97;;;10.42;65.87
9009;BME280;62813;51.424;6.762;2023-03-20T14:23:17;101615.31;;;10.37;66.16
9009;BME280;62813;51.424;6.762;2023-03-20T14:25:46;101610.81;;;10.42;66.30
9009;BME280;62813;51.424;6.762;2023-03-20T14:30:42;101606.69;;;10.68;65.64
9009;BME280;62813;51.424;6.762;2023-03-20T14:35:43;101603.81;;;10.77;65.38
9009;BME280;62813;51.424;6.762;2023-03-20T14:41:07;101596.44;;;10.94;65.17
9009;BME280;62813;51.424;6.762;2023-03-20T14:43:51;101596.72;;;10.83;65.58
9009;BME280;62813;51.424;6.762;2023-03-20T14:46:42;101592.50;;;10.79;65.31
9009;BME280;62813;51.424;6.762;2023-03-20T14:54:54;101595.06;;;10.81;65.54
9009;BME280;62813;51.424;6.762;2023-03-20T14:57:31;101592.06;;;10.64;65.67
9009;BME280;62813;51.424;6.762;2023-03-20T15:00:20;101593.13;;;10.58;65.55
9009;BME280;62813;51.424;6.762;2023-03-20T15:05:33;101595.34;;;10.72;66.25
9009;BME280;62813;51.424;6.762;2023-03-20T15:08:09;101588.59;;;10.65;66.54
9009;BME280;62813;51.424;6.762;2023-03-20T15:10:48;101582.91;;;10.52;67.05
9009;BME280;62813;51.424;6.762;2023-03-20T15:13:16;101587.09;;;10.56;67.37
9009;BME280;62813;51.424;6.762;2023-03-20T15:15:59;101575.06;;;10.53;67.43